地図

経路データ

SID SEASON NUMBER BASIN SUBBASIN NAME ISO_TIME NATURE LAT LON WMO_WIND WMO_PRES WMO_AGENCY TRACK_TYPE DIST2LAND LANDFALL IFLAG USA_AGENCY USA_ATCF_ID USA_LAT USA_LON USA_RECORD USA_STATUS USA_WIND USA_PRES USA_SSHS USA_R34_NE USA_R34_SE USA_R34_SW USA_R34_NW USA_R50_NE USA_R50_SE USA_R50_SW USA_R50_NW USA_R64_NE USA_R64_SE USA_R64_SW USA_R64_NW USA_POCI USA_ROCI USA_RMW USA_EYE TOKYO_LAT TOKYO_LON TOKYO_GRADE TOKYO_WIND TOKYO_PRES TOKYO_R50_DIR TOKYO_R50_LONG TOKYO_R50_SHORT TOKYO_R30_DIR TOKYO_R30_LONG TOKYO_R30_SHORT TOKYO_LAND CMA_LAT CMA_LON CMA_CAT CMA_WIND CMA_PRES HKO_LAT HKO_LON HKO_CAT HKO_WIND HKO_PRES NEWDELHI_LAT NEWDELHI_LON NEWDELHI_GRADE NEWDELHI_WIND NEWDELHI_PRES NEWDELHI_CI NEWDELHI_DP NEWDELHI_POCI REUNION_LAT REUNION_LON REUNION_TYPE REUNION_WIND REUNION_PRES REUNION_TNUM REUNION_CI REUNION_RMW REUNION_R34_NE REUNION_R34_SE REUNION_R34_SW REUNION_R34_NW REUNION_R50_NE REUNION_R50_SE REUNION_R50_SW REUNION_R50_NW REUNION_R64_NE REUNION_R64_SE REUNION_R64_SW REUNION_R64_NW BOM_LAT BOM_LON BOM_TYPE BOM_WIND BOM_PRES BOM_TNUM BOM_CI BOM_RMW BOM_R34_NE BOM_R34_SE BOM_R34_SW BOM_R34_NW BOM_R50_NE BOM_R50_SE BOM_R50_SW BOM_R50_NW BOM_R64_NE BOM_R64_SE BOM_R64_SW BOM_R64_NW BOM_ROCI BOM_POCI BOM_EYE BOM_POS_METHOD BOM_PRES_METHOD NADI_LAT NADI_LON NADI_CAT NADI_WIND NADI_PRES WELLINGTON_LAT WELLINGTON_LON WELLINGTON_WIND WELLINGTON_PRES DS824_LAT DS824_LON DS824_STAGE DS824_WIND DS824_PRES TD9636_LAT TD9636_LON TD9636_STAGE TD9636_WIND TD9636_PRES TD9635_LAT TD9635_LON TD9635_WIND TD9635_PRES TD9635_ROCI NEUMANN_LAT NEUMANN_LON NEUMANN_CLASS NEUMANN_WIND NEUMANN_PRES MLC_LAT MLC_LON MLC_CLASS MLC_WIND MLC_PRES USA_GUST BOM_GUST BOM_GUST_PER REUNION_GUST REUNION_GUST_PER USA_SEAHGT USA_SEARAD_NE USA_SEARAD_SE USA_SEARAD_SW USA_SEARAD_NW STORM_SPEED STORM_DIR
2006312N13256 2006 89 EP MM ROSA 2006-11-08 06:00:00 TS 12.7000 -103.700 30 1006 hurdat_epa main 585 567 O_____________ hurdat_epa EP192006 12.7000 -103.700 TD 30 1006 -1 1011 150 30 40 7 328
2006312N13256 2006 89 EP MM ROSA 2006-11-08 09:00:00 TS 13.0100 -103.900 main 567 549 P_____________ EP192006 13.0100 -103.900 TD 30 1005 -1 1009 150 30 7 327
2006312N13256 2006 89 EP MM ROSA 2006-11-08 12:00:00 TS 13.3000 -104.100 30 1004 hurdat_epa main 549 531 O_____________ hurdat_epa EP192006 13.3000 -104.100 TD 30 1004 -1 1008 150 30 40 7 325
2006312N13256 2006 89 EP MM ROSA 2006-11-08 15:00:00 TS 13.5575 -104.300 main 525 510 P_____________ EP192006 13.5575 -104.300 TD 30 1004 -1 1008 150 30 6 322
2006312N13256 2006 89 EP MM ROSA 2006-11-08 18:00:00 TS 13.8000 -104.500 30 1004 hurdat_epa main 510 493 O_____________ hurdat_epa EP192006 13.8000 -104.500 TD 30 1004 -1 1009 150 30 40 6 321
2006312N13256 2006 89 EP MM ROSA 2006-11-08 21:00:00 TS 14.0500 -104.708 main 486 471 P_____________ EP192006 14.0500 -104.708 TD 30 1004 -1 1009 150 30 6 322
2006312N13256 2006 89 EP MM ROSA 2006-11-09 00:00:00 TS 14.3000 -104.900 30 1004 hurdat_epa main 471 447 O_____________ hurdat_epa EP192006 14.3000 -104.900 TD 30 1004 -1 1009 150 30 40 6 326
2006312N13256 2006 89 EP MM ROSA 2006-11-09 03:00:00 TS 14.5650 -105.065 main 447 431 P_____________ EP192006 14.5650 -105.065 TD 32 1003 -1 1009 165 30 6 330
2006312N13256 2006 89 EP MM ROSA 2006-11-09 06:00:00 TS 14.8000 -105.200 35 1002 hurdat_epa main 431 416 O_____________ hurdat_epa EP192006 14.8000 -105.200 TS 35 1002 0 45 45 45 1010 180 30 40 5 329
2006312N13256 2006 89 EP MM ROSA 2006-11-09 09:00:00 TS 14.9725 -105.315 main 416 411 P_____________ EP192006 14.9725 -105.315 TS 35 1002 0 45 45 45 1010 180 30 4 327
2006312N13256 2006 89 EP MM ROSA 2006-11-09 12:00:00 TS 15.1000 -105.400 35 1002 hurdat_epa main 411 401 O_____________ hurdat_epa EP192006 15.1000 -105.400 TS 35 1002 0 45 45 45 1010 180 30 45 3 330
2006312N13256 2006 89 EP MM ROSA 2006-11-09 15:00:00 TS 15.2075 -105.458 main 407 397 P_____________ EP192006 15.2075 -105.458 TS 35 1002 0 45 45 45 1010 180 30 2 333
2006312N13256 2006 89 EP MM ROSA 2006-11-09 18:00:00 TS 15.3000 -105.500 35 1002 hurdat_epa main 397 388 O_____________ hurdat_epa EP192006 15.3000 -105.500 TS 35 1002 0 45 45 45 1010 180 30 45 2 335
2006312N13256 2006 89 EP MM ROSA 2006-11-09 21:00:00 TS 15.4000 -105.550 main 394 384 P_____________ EP192006 15.4000 -105.550 TS 32 1003 -1 1010 165 30 2 333
2006312N13256 2006 89 EP MM ROSA 2006-11-10 00:00:00 TS 15.5000 -105.600 30 1004 hurdat_epa main 384 375 O_____________ hurdat_epa EP192006 15.5000 -105.600 TD 30 1004 -1 1010 150 30 40 2 335
2006312N13256 2006 89 EP MM ROSA 2006-11-10 03:00:00 TS 15.6000 -105.643 main 375 373 P_____________ EP192006 15.6000 -105.643 TD 27 1004 -1 1010 150 30 2 333
2006312N13256 2006 89 EP MM ROSA 2006-11-10 06:00:00 TS 15.7000 -105.700 25 1005 hurdat_epa main 373 364 O_____________ hurdat_epa EP192006 15.7000 -105.700 TD 25 1005 -1 1010 150 30 35 2 327
2006312N13256 2006 89 EP MM ROSA 2006-11-10 09:00:00 TS 15.8075 -105.778 main 371 363 P_____________ EP192006 15.8075 -105.778 TD 25 1005 -1 1009 150 30 3 316
2006312N13256 2006 89 EP MM ROSA 2006-11-10 12:00:00 TS 15.9000 -105.900 25 1006 hurdat_epa main 370 369 O_____________ hurdat_epa EP192006 15.9000 -105.900 TD 25 1006 -1 1009 150 30 35 3 297
2006312N13256 2006 89 EP MM ROSA 2006-11-10 15:00:00 TS 15.9601 -106.082 main 377 377 P_____________ EP192006 15.9601 -106.082 TD 25 1006 -1 1009 150 30 4 285
2006312N13256 2006 89 EP MM ROSA 2006-11-10 18:00:00 TS 16.0000 -106.300 25 1007 hurdat_epa main 391 O_____________ hurdat_epa EP192006 16.0000 -106.300 TD 25 1007 -1 1010 150 30 35 4 281

IBTrACS Databaseについて

本データベースは、米国NOAAが公開する1842年以降の世界の熱帯低気圧のベストトラックデータアーカイブInternational Best Track Archive for Climate Stewardship (IBTrACS)を、ウェブで閲覧しやすい形式に変換したものです。

最終更新日:2021-10-08